sensor_id;sensor_type;location;lat;lon;timestamp;temperature;humidity
31979;DHT22;18502;43.574;1.276;2022-07-10T00:00:17;22.40;70.30
31979;DHT22;18502;43.574;1.276;2022-07-10T00:02:46;22.20;71.10
31979;DHT22;18502;43.574;1.276;2022-07-10T00:05:11;22.20;71.90
31979;DHT22;18502;43.574;1.276;2022-07-10T00:07:37;22.10;72.50
31979;DHT22;18502;43.574;1.276;2022-07-10T00:10:03;22.10;72.70
31979;DHT22;18502;43.574;1.276;2022-07-10T00:12:29;22.00;73.20
31979;DHT22;18502;43.574;1.276;2022-07-10T00:14:55;22.00;73.80
31979;DHT22;18502;43.574;1.276;2022-07-10T00:17:20;21.90;74.40
31979;DHT22;18502;43.574;1.276;2022-07-10T00:19:46;21.90;74.60
31979;DHT22;18502;43.574;1.276;2022-07-10T00:22:11;21.80;75.50
31979;DHT22;18502;43.574;1.276;2022-07-10T00:24:37;21.80;76.30
31979;DHT22;18502;43.574;1.276;2022-07-10T00:27:03;21.60;77.10
31979;DHT22;18502;43.574;1.276;2022-07-10T00:29:29;21.60;78.10
31979;DHT22;18502;43.574;1.276;2022-07-10T00:31:54;21.50;78.60
31979;DHT22;18502;43.574;1.276;2022-07-10T00:34:20;21.40;79.80
31979;DHT22;18502;43.574;1.276;2022-07-10T00:36:45;21.50;79.80
31979;DHT22;18502;43.574;1.276;2022-07-10T00:39:12;21.40;80.50
31979;DHT22;18502;43.574;1.276;2022-07-10T00:41:37;21.40;81.60
31979;DHT22;18502;43.574;1.276;2022-07-10T00:44:03;21.20;82.40
31979;DHT22;18502;43.574;1.276;2022-07-10T00:46:29;21.10;82.90
31979;DHT22;18502;43.574;1.276;2022-07-10T00:48:55;21.00;83.60
31979;DHT22;18502;43.574;1.276;2022-07-10T00:51:23;20.90;84.90
31979;DHT22;18502;43.574;1.276;2022-07-10T00:53:49;20.80;86.20
31979;DHT22;18502;43.574;1.276;2022-07-10T00:56:22;20.80;87.10
31979;DHT22;18502;43.574;1.276;2022-07-10T00:58:48;20.70;88.20
31979;DHT22;18502;43.574;1.276;2022-07-10T01:01:14;20.70;89.10
31979;DHT22;18502;43.574;1.276;2022-07-10T01:03:40;20.70;89.60
31979;DHT22;18502;43.574;1.276;2022-07-10T01:06:06;20.60;90.20
31979;DHT22;18502;43.574;1.276;2022-07-10T01:08:32;20.60;90.40
31979;DHT22;18502;43.574;1.276;2022-07-10T01:10:58;20.50;90.70
31979;DHT22;18502;43.574;1.276;2022-07-10T01:13:24;20.40;91.20
31979;DHT22;18502;43.574;1.276;2022-07-10T01:15:49;20.40;91.70
31979;DHT22;18502;43.574;1.276;2022-07-10T01:18:16;20.40;92.30
31979;DHT22;18502;43.574;1.276;2022-07-10T01:20:41;20.40;92.90
31979;DHT22;18502;43.574;1.276;2022-07-10T01:23:07;20.30;92.80
31979;DHT22;18502;43.574;1.276;2022-07-10T01:25:32;20.10;93.50
31979;DHT22;18502;43.574;1.276;2022-07-10T01:27:58;19.70;94.80
31979;DHT22;18502;43.574;1.276;2022-07-10T01:30:24;19.50;96.10
31979;DHT22;18502;43.574;1.276;2022-07-10T01:32:50;19.60;96.80
31979;DHT22;18502;43.574;1.276;2022-07-10T01:35:15;19.40;97.60
31979;DHT22;18502;43.574;1.276;2022-07-10T01:37:41;19.20;98.70
31979;DHT22;18502;43.574;1.276;2022-07-10T01:40:07;19.30;99.50
31979;DHT22;18502;43.574;1.276;2022-07-10T01:42:33;19.30;99.90
31979;DHT22;18502;43.574;1.276;2022-07-10T01:44:58;19.40;99.90
31979;DHT22;18502;43.574;1.276;2022-07-10T01:47:24;19.50;99.90
31979;DHT22;18502;43.574;1.276;2022-07-10T01:49:51;19.40;99.90
31979;DHT22;18502;43.574;1.276;2022-07-10T01:52:18;19.30;99.90
31979;DHT22;18502;43.574;1.276;2022-07-10T01:54:43;19.20;99.90
31979;DHT22;18502;43.574;1.276;2022-07-10T01:57:09;19.00;99.90
31979;DHT22;18502;43.574;1.276;2022-07-10T01:59:35;18.90;99.90
31979;DHT22;18502;43.574;1.276;2022-07-10T02:02:00;18.80;99.90
31979;DHT22;18502;43.574;1.276;2022-07-10T02:04:26;18.70;99.90
31979;DHT22;18502;43.574;1.276;2022-07-10T02:07:13;18.60;99.90
31979;DHT22;18502;43.574;1.276;2022-07-10T02:09:39;18.40;99.90
31979;DHT22;18502;43.574;1.276;2022-07-10T02:12:05;18.40;99.90
31979;DHT22;18502;43.574;1.276;2022-07-10T02:14:31;18.40;99.90
31979;DHT22;18502;43.574;1.276;2022-07-10T02:16:57;18.40;99.90
31979;DHT22;18502;43.574;1.276;2022-07-10T02:19:23;18.30;99.90
31979;DHT22;18502;43.574;1.276;2022-07-10T02:21:48;18.20;99.90
31979;DHT22;18502;43.574;1.276;2022-07-10T02:24:14;18.10;99.90
31979;DHT22;18502;43.574;1.276;2022-07-10T02:26:39;18.10;99.90
31979;DHT22;18502;43.574;1.276;2022-07-10T02:29:05;18.10;99.90
31979;DHT22;18502;43.574;1.276;2022-07-10T02:31:30;18.00;99.90
31979;DHT22;18502;43.574;1.276;2022-07-10T02:34:02;17.90;99.90
31979;DHT22;18502;43.574;1.276;2022-07-10T02:36:28;17.80;99.90
31979;DHT22;18502;43.574;1.276;2022-07-10T02:38:53;17.80;99.90
31979;DHT22;18502;43.574;1.276;2022-07-10T02:41:19;17.80;99.90
31979;DHT22;18502;43.574;1.276;2022-07-10T02:43:44;18.00;99.90
31979;DHT22;18502;43.574;1.276;2022-07-10T02:46:10;17.90;99.90
31979;DHT22;18502;43.574;1.276;2022-07-10T02:48:35;18.00;99.90
31979;DHT22;18502;43.574;1.276;2022-07-10T02:51:01;17.80;99.90
31979;DHT22;18502;43.574;1.276;2022-07-10T02:53:26;17.70;99.90
31979;DHT22;18502;43.574;1.276;2022-07-10T02:55:52;17.60;99.90
31979;DHT22;18502;43.574;1.276;2022-07-10T02:58:17;17.60;99.90
31979;DHT22;18502;43.574;1.276;2022-07-10T03:00:44;17.60;99.90
31979;DHT22;18502;43.574;1.276;2022-07-10T03:03:10;17.40;99.90
31979;DHT22;18502;43.574;1.276;2022-07-10T03:05:36;17.50;99.90
31979;DHT22;18502;43.574;1.276;2022-07-10T03:08:01;17.40;99.90
31979;DHT22;18502;43.574;1.276;2022-07-10T03:10:27;17.50;99.90
31979;DHT22;18502;43.574;1.276;2022-07-10T03:12:53;17.50;99.90
31979;DHT22;18502;43.574;1.276;2022-07-10T03:15:18;17.60;99.90
31979;DHT22;18502;43.574;1.276;2022-07-10T03:17:44;17.50;99.90
31979;DHT22;18502;43.574;1.276;2022-07-10T03:20:09;17.50;99.90
31979;DHT22;18502;43.574;1.276;2022-07-10T03:22:35;17.50;99.90
31979;DHT22;18502;43.574;1.276;2022-07-10T03:25:01;17.50;99.90
31979;DHT22;18502;43.574;1.276;2022-07-10T03:27:27;17.50;99.90
31979;DHT22;18502;43.574;1.276;2022-07-10T03:29:52;17.40;99.90
31979;DHT22;18502;43.574;1.276;2022-07-10T03:32:18;17.40;99.90
31979;DHT22;18502;43.574;1.276;2022-07-10T03:34:43;17.20;99.90
31979;DHT22;18502;43.574;1.276;2022-07-10T03:37:09;17.20;99.90
31979;DHT22;18502;43.574;1.276;2022-07-10T03:39:35;17.30;99.90
31979;DHT22;18502;43.574;1.276;2022-07-10T03:42:00;17.40;99.90
31979;DHT22;18502;43.574;1.276;2022-07-10T03:44:26;17.50;99.90
31979;DHT22;18502;43.574;1.276;2022-07-10T03:46:52;17.60;99.90
31979;DHT22;18502;43.574;1.276;2022-07-10T03:49:17;17.70;99.90
31979;DHT22;18502;43.574;1.276;2022-07-10T03:51:43;17.70;99.90
31979;DHT22;18502;43.574;1.276;2022-07-10T03:54:08;17.70;99.90
31979;DHT22;18502;43.574;1.276;2022-07-10T03:56:34;17.70;99.90
31979;DHT22;18502;43.574;1.276;2022-07-10T03:59:18;17.80;99.90
31979;DHT22;18502;43.574;1.276;2022-07-10T04:01:43;17.90;99.90
31979;DHT22;18502;43.574;1.276;2022-07-10T04:04:09;17.90;99.90
31979;DHT22;18502;43.574;1.276;2022-07-10T04:06:35;17.80;99.90
31979;DHT22;18502;43.574;1.276;2022-07-10T04:09:04;17.90;99.90
31979;DHT22;18502;43.574;1.276;2022-07-10T04:11:29;17.90;99.90
31979;DHT22;18502;43.574;1.276;2022-07-10T04:13:56;18.00;99.90
31979;DHT22;18502;43.574;1.276;2022-07-10T04:16:21;18.10;99.90
31979;DHT22;18502;43.574;1.276;2022-07-10T04:18:47;18.10;99.90
31979;DHT22;18502;43.574;1.276;2022-07-10T04:21:13;18.00;99.90
31979;DHT22;18502;43.574;1.276;2022-07-10T04:23:38;18.00;99.90
31979;DHT22;18502;43.574;1.276;2022-07-10T04:26:04;17.90;99.90
31979;DHT22;18502;43.574;1.276;2022-07-10T04:28:30;17.80;99.90
31979;DHT22;18502;43.574;1.276;2022-07-10T04:30:55;17.80;99.90
31979;DHT22;18502;43.574;1.276;2022-07-10T04:33:21;17.70;99.90
31979;DHT22;18502;43.574;1.276;2022-07-10T04:35:47;17.60;99.90
31979;DHT22;18502;43.574;1.276;2022-07-10T04:38:12;17.60;99.90
31979;DHT22;18502;43.574;1.276;2022-07-10T04:40:38;17.50;99.90
31979;DHT22;18502;43.574;1.276;2022-07-10T04:43:03;17.50;99.90
31979;DHT22;18502;43.574;1.276;2022-07-10T04:45:29;17.60;99.90
31979;DHT22;18502;43.574;1.276;2022-07-10T04:47:54;17.60;99.90
31979;DHT22;18502;43.574;1.276;2022-07-10T04:50:20;17.60;99.90
31979;DHT22;18502;43.574;1.276;2022-07-10T04:52:45;17.60;99.90
31979;DHT22;18502;43.574;1.276;2022-07-10T04:55:11;17.70;99.90
31979;DHT22;18502;43.574;1.276;2022-07-10T04:57:36;17.70;99.90
31979;DHT22;18502;43.574;1.276;2022-07-10T05:00:04;17.60;99.90
31979;DHT22;18502;43.574;1.276;2022-07-10T05:02:29;17.70;99.90
31979;DHT22;18502;43.574;1.276;2022-07-10T05:04:55;17.70;99.90
31979;DHT22;18502;43.574;1.276;2022-07-10T05:07:20;17.40;99.90
31979;DHT22;18502;43.574;1.276;2022-07-10T05:09:46;17.50;99.90
31979;DHT22;18502;43.574;1.276;2022-07-10T05:12:11;17.60;99.90
31979;DHT22;18502;43.574;1.276;2022-07-10T05:14:37;17.70;99.90
31979;DHT22;18502;43.574;1.276;2022-07-10T05:17:02;17.80;99.90
31979;DHT22;18502;43.574;1.276;2022-07-10T05:19:28;17.90;99.90
31979;DHT22;18502;43.574;1.276;2022-07-10T05:21:54;18.00;99.90
31979;DHT22;18502;43.574;1.276;2022-07-10T05:24:20;18.00;99.90
31979;DHT22;18502;43.574;1.276;2022-07-10T05:26:46;18.10;99.90
31979;DHT22;18502;43.574;1.276;2022-07-10T05:29:11;18.00;99.90
31979;DHT22;18502;43.574;1.276;2022-07-10T05:31:37;18.10;99.90
31979;DHT22;18502;43.574;1.276;2022-07-10T05:34:02;18.30;99.90
31979;DHT22;18502;43.574;1.276;2022-07-10T05:36:28;18.30;99.90
31979;DHT22;18502;43.574;1.276;2022-07-10T05:38:54;18.40;99.90
31979;DHT22;18502;43.574;1.276;2022-07-10T05:41:19;18.50;99.90
31979;DHT22;18502;43.574;1.276;2022-07-10T05:43:45;18.60;99.90
31979;DHT22;18502;43.574;1.276;2022-07-10T05:46:10;18.60;99.90
31979;DHT22;18502;43.574;1.276;2022-07-10T05:48:36;18.70;99.90
31979;DHT22;18502;43.574;1.276;2022-07-10T05:51:03;18.80;99.90
31979;DHT22;18502;43.574;1.276;2022-07-10T05:53:29;18.90;99.90
31979;DHT22;18502;43.574;1.276;2022-07-10T05:55:54;19.00;99.90
31979;DHT22;18502;43.574;1.276;2022-07-10T05:58:20;19.10;99.90
31979;DHT22;18502;43.574;1.276;2022-07-10T06:00:45;19.20;99.90
31979;DHT22;18502;43.574;1.276;2022-07-10T06:03:11;19.00;99.90
31979;DHT22;18502;43.574;1.276;2022-07-10T06:05:37;19.10;99.90
31979;DHT22;18502;43.574;1.276;2022-07-10T06:08:03;19.10;99.90
31979;DHT22;18502;43.574;1.276;2022-07-10T06:10:29;19.20;99.90
31979;DHT22;18502;43.574;1.276;2022-07-10T06:12:54;19.40;99.90
31979;DHT22;18502;43.574;1.276;2022-07-10T06:15:20;19.40;99.90
31979;DHT22;18502;43.574;1.276;2022-07-10T06:17:46;19.50;99.90
31979;DHT22;18502;43.574;1.276;2022-07-10T06:20:11;19.40;99.90
31979;DHT22;18502;43.574;1.276;2022-07-10T06:22:37;19.40;99.90
31979;DHT22;18502;43.574;1.276;2022-07-10T06:25:04;19.50;99.90
31979;DHT22;18502;43.574;1.276;2022-07-10T06:27:30;19.60;99.90
31979;DHT22;18502;43.574;1.276;2022-07-10T06:29:55;19.70;99.90
31979;DHT22;18502;43.574;1.276;2022-07-10T06:32:21;19.70;99.90
31979;DHT22;18502;43.574;1.276;2022-07-10T06:34:47;19.80;99.90
31979;DHT22;18502;43.574;1.276;2022-07-10T06:37:12;19.90;99.90
31979;DHT22;18502;43.574;1.276;2022-07-10T06:39:38;20.00;99.90
31979;DHT22;18502;43.574;1.276;2022-07-10T06:42:04;20.10;99.90
31979;DHT22;18502;43.574;1.276;2022-07-10T06:44:30;20.20;99.90
31979;DHT22;18502;43.574;1.276;2022-07-10T06:46:56;20.30;99.90
31979;DHT22;18502;43.574;1.276;2022-07-10T06:49:40;20.40;99.90
31979;DHT22;18502;43.574;1.276;2022-07-10T06:52:06;20.60;99.90
31979;DHT22;18502;43.574;1.276;2022-07-10T06:54:32;20.60;99.90
31979;DHT22;18502;43.574;1.276;2022-07-10T06:56:58;20.80;99.90
31979;DHT22;18502;43.574;1.276;2022-07-10T06:59:24;20.80;99.90
31979;DHT22;18502;43.574;1.276;2022-07-10T07:01:50;20.90;99.90
31979;DHT22;18502;43.574;1.276;2022-07-10T07:04:15;21.00;99.90
31979;DHT22;18502;43.574;1.276;2022-07-10T07:06:41;21.10;99.90
31979;DHT22;18502;43.574;1.276;2022-07-10T07:09:06;21.20;99.90
31979;DHT22;18502;43.574;1.276;2022-07-10T07:11:32;21.30;99.90
31979;DHT22;18502;43.574;1.276;2022-07-10T07:13:57;21.30;99.90
31979;DHT22;18502;43.574;1.276;2022-07-10T07:16:23;21.50;99.90
31979;DHT22;18502;43.574;1.276;2022-07-10T07:19:03;21.50;99.90
31979;DHT22;18502;43.574;1.276;2022-07-10T07:21:30;21.60;99.90
31979;DHT22;18502;43.574;1.276;2022-07-10T07:24:14;21.70;99.90
31979;DHT22;18502;43.574;1.276;2022-07-10T07:26:40;21.80;99.90
31979;DHT22;18502;43.574;1.276;2022-07-10T07:29:05;21.80;99.90
31979;DHT22;18502;43.574;1.276;2022-07-10T07:31:31;22.00;99.90
31979;DHT22;18502;43.574;1.276;2022-07-10T07:33:57;22.10;99.90
31979;DHT22;18502;43.574;1.276;2022-07-10T07:36:22;22.30;99.90
31979;DHT22;18502;43.574;1.276;2022-07-10T07:38:48;22.50;99.90
31979;DHT22;18502;43.574;1.276;2022-07-10T07:41:13;22.60;99.90
31979;DHT22;18502;43.574;1.276;2022-07-10T07:43:40;22.70;99.90
31979;DHT22;18502;43.574;1.276;2022-07-10T07:46:06;22.80;99.90
31979;DHT22;18502;43.574;1.276;2022-07-10T07:48:31;22.90;99.90
31979;DHT22;18502;43.574;1.276;2022-07-10T07:50:57;23.00;99.90
31979;DHT22;18502;43.574;1.276;2022-07-10T07:53:23;23.10;99.90
31979;DHT22;18502;43.574;1.276;2022-07-10T07:55:48;23.10;99.90
31979;DHT22;18502;43.574;1.276;2022-07-10T07:58:14;23.20;99.90
31979;DHT22;18502;43.574;1.276;2022-07-10T08:00:40;23.40;99.90
31979;DHT22;18502;43.574;1.276;2022-07-10T08:03:05;23.50;99.90
31979;DHT22;18502;43.574;1.276;2022-07-10T08:05:31;23.60;99.90
31979;DHT22;18502;43.574;1.276;2022-07-10T08:07:57;23.80;99.90
31979;DHT22;18502;43.574;1.276;2022-07-10T08:10:24;23.80;99.90
31979;DHT22;18502;43.574;1.276;2022-07-10T08:12:51;24.00;99.90
31979;DHT22;18502;43.574;1.276;2022-07-10T08:15:18;24.10;99.90
31979;DHT22;18502;43.574;1.276;2022-07-10T08:17:46;24.10;99.90
31979;DHT22;18502;43.574;1.276;2022-07-10T08:20:12;24.30;99.90
31979;DHT22;18502;43.574;1.276;2022-07-10T08:22:38;24.40;99.90
31979;DHT22;18502;43.574;1.276;2022-07-10T08:25:04;24.50;99.90
31979;DHT22;18502;43.574;1.276;2022-07-10T08:27:30;24.60;99.90
31979;DHT22;18502;43.574;1.276;2022-07-10T08:29:55;24.70;99.90
31979;DHT22;18502;43.574;1.276;2022-07-10T08:32:21;24.90;99.90
31979;DHT22;18502;43.574;1.276;2022-07-10T08:34:47;25.10;99.90
31979;DHT22;18502;43.574;1.276;2022-07-10T08:37:13;25.10;99.90
31979;DHT22;18502;43.574;1.276;2022-07-10T08:39:39;25.20;99.90
31979;DHT22;18502;43.574;1.276;2022-07-10T08:42:06;25.40;99.90
31979;DHT22;18502;43.574;1.276;2022-07-10T08:44:31;25.40;99.90
31979;DHT22;18502;43.574;1.276;2022-07-10T08:46:58;25.60;99.90
31979;DHT22;18502;43.574;1.276;2022-07-10T08:49:26;25.70;99.90
31979;DHT22;18502;43.574;1.276;2022-07-10T08:54:25;25.60;99.90
31979;DHT22;18502;43.574;1.276;2022-07-10T08:56:52;25.70;99.90
31979;DHT22;18502;43.574;1.276;2022-07-10T08:59:18;25.90;99.90
31979;DHT22;18502;43.574;1.276;2022-07-10T09:01:44;26.00;99.90
31979;DHT22;18502;43.574;1.276;2022-07-10T09:04:20;25.90;99.90
31979;DHT22;18502;43.574;1.276;2022-07-10T09:06:45;26.20;99.90
31979;DHT22;18502;43.574;1.276;2022-07-10T09:09:11;26.30;99.90
31979;DHT22;18502;43.574;1.276;2022-07-10T09:11:40;26.40;99.90
31979;DHT22;18502;43.574;1.276;2022-07-10T09:14:10;26.80;99.90
31979;DHT22;18502;43.574;1.276;2022-07-10T09:16:37;26.70;99.90
31979;DHT22;18502;43.574;1.276;2022-07-10T09:19:17;26.60;99.90
31979;DHT22;18502;43.574;1.276;2022-07-10T09:21:47;26.80;99.90
31979;DHT22;18502;43.574;1.276;2022-07-10T09:24:13;27.00;99.90
31979;DHT22;18502;43.574;1.276;2022-07-10T09:26:40;27.10;99.90
31979;DHT22;18502;43.574;1.276;2022-07-10T09:29:09;27.30;99.90
31979;DHT22;18502;43.574;1.276;2022-07-10T09:31:51;27.40;99.90
31979;DHT22;18502;43.574;1.276;2022-07-10T09:34:17;27.40;99.90
31979;DHT22;18502;43.574;1.276;2022-07-10T09:36:43;27.40;99.90
31979;DHT22;18502;43.574;1.276;2022-07-10T09:39:08;27.60;99.90
31979;DHT22;18502;43.574;1.276;2022-07-10T09:41:34;27.70;99.90
31979;DHT22;18502;43.574;1.276;2022-07-10T09:44:03;27.70;99.90
31979;DHT22;18502;43.574;1.276;2022-07-10T09:46:33;27.70;99.90
31979;DHT22;18502;43.574;1.276;2022-07-10T09:49:03;28.00;99.90
31979;DHT22;18502;43.574;1.276;2022-07-10T09:51:33;28.00;99.90
31979;DHT22;18502;43.574;1.276;2022-07-10T09:54:03;28.10;99.90
31979;DHT22;18502;43.574;1.276;2022-07-10T09:56:42;28.30;99.90
31979;DHT22;18502;43.574;1.276;2022-07-10T09:59:09;28.60;99.90
31979;DHT22;18502;43.574;1.276;2022-07-10T10:01:36;28.60;99.90
31979;DHT22;18502;43.574;1.276;2022-07-10T10:04:03;28.60;99.90
31979;DHT22;18502;43.574;1.276;2022-07-10T10:06:29;28.70;99.50
31979;DHT22;18502;43.574;1.276;2022-07-10T10:11:40;28.80;98.70
31979;DHT22;18502;43.574;1.276;2022-07-10T10:14:06;28.80;97.80
31979;DHT22;18502;43.574;1.276;2022-07-10T10:16:32;28.90;96.20
31979;DHT22;18502;43.574;1.276;2022-07-10T10:18:58;29.00;95.90
31979;DHT22;18502;43.574;1.276;2022-07-10T10:21:43;29.00;96.30
31979;DHT22;18502;43.574;1.276;2022-07-10T10:24:08;29.10;95.20
31979;DHT22;18502;43.574;1.276;2022-07-10T10:26:35;28.90;95.10
31979;DHT22;18502;43.574;1.276;2022-07-10T10:29:01;28.90;94.60
31979;DHT22;18502;43.574;1.276;2022-07-10T10:31:28;29.30;94.60
31979;DHT22;18502;43.574;1.276;2022-07-10T10:33:54;29.50;92.60
31979;DHT22;18502;43.574;1.276;2022-07-10T10:39:13;29.50;91.20
31979;DHT22;18502;43.574;1.276;2022-07-10T10:41:40;29.60;91.40
31979;DHT22;18502;43.574;1.276;2022-07-10T10:46:32;29.70;90.40
31979;DHT22;18502;43.574;1.276;2022-07-10T10:49:07;29.90;91.90
31979;DHT22;18502;43.574;1.276;2022-07-10T10:54:18;29.90;90.30
31979;DHT22;18502;43.574;1.276;2022-07-10T10:56:43;30.10;90.50
31979;DHT22;18502;43.574;1.276;2022-07-10T10:59:09;30.30;90.10
31979;DHT22;18502;43.574;1.276;2022-07-10T11:01:34;30.20;86.60
31979;DHT22;18502;43.574;1.276;2022-07-10T11:06:39;30.60;85.60
31979;DHT22;18502;43.574;1.276;2022-07-10T11:12:02;30.70;85.80
31979;DHT22;18502;43.574;1.276;2022-07-10T11:14:30;30.90;85.60
31979;DHT22;18502;43.574;1.276;2022-07-10T11:16:56;30.70;83.70
31979;DHT22;18502;43.574;1.276;2022-07-10T11:19:22;31.00;83.50
31979;DHT22;18502;43.574;1.276;2022-07-10T11:21:48;31.00;81.00
31979;DHT22;18502;43.574;1.276;2022-07-10T11:24:29;31.20;79.40
31979;DHT22;18502;43.574;1.276;2022-07-10T11:27:02;31.20;76.50
31979;DHT22;18502;43.574;1.276;2022-07-10T11:29:35;31.40;76.00
31979;DHT22;18502;43.574;1.276;2022-07-10T11:32:01;31.50;77.50
31979;DHT22;18502;43.574;1.276;2022-07-10T11:34:34;31.40;75.00
31979;DHT22;18502;43.574;1.276;2022-07-10T11:36:59;31.40;75.90
31979;DHT22;18502;43.574;1.276;2022-07-10T11:39:25;31.50;70.50
31979;DHT22;18502;43.574;1.276;2022-07-10T11:41:50;31.60;71.40
31979;DHT22;18502;43.574;1.276;2022-07-10T11:44:17;31.70;73.20
31979;DHT22;18502;43.574;1.276;2022-07-10T11:46:44;31.80;69.00
31979;DHT22;18502;43.574;1.276;2022-07-10T11:49:10;32.00;69.80
31979;DHT22;18502;43.574;1.276;2022-07-10T11:51:39;32.40;64.90
31979;DHT22;18502;43.574;1.276;2022-07-10T11:54:06;33.10;67.10
31979;DHT22;18502;43.574;1.276;2022-07-10T11:56:33;34.00;62.80
31979;DHT22;18502;43.574;1.276;2022-07-10T12:01:30;37.90;52.10
31979;DHT22;18502;43.574;1.276;2022-07-10T12:03:59;41.20;46.10
31979;DHT22;18502;43.574;1.276;2022-07-10T12:06:25;43.70;35.10
31979;DHT22;18502;43.574;1.276;2022-07-10T12:08:51;45.40;28.90
31979;DHT22;18502;43.574;1.276;2022-07-10T12:11:18;46.50;24.90
31979;DHT22;18502;43.574;1.276;2022-07-10T12:13:44;47.60;22.80
31979;DHT22;18502;43.574;1.276;2022-07-10T12:16:11;48.20;23.40
31979;DHT22;18502;43.574;1.276;2022-07-10T12:18:36;49.30;21.70
31979;DHT22;18502;43.574;1.276;2022-07-10T12:21:02;49.10;20.90
31979;DHT22;18502;43.574;1.276;2022-07-10T12:23:29;48.30;20.60
31979;DHT22;18502;43.574;1.276;2022-07-10T12:25:55;48.60;19.80
31979;DHT22;18502;43.574;1.276;2022-07-10T12:28:21;49.00;18.20
31979;DHT22;18502;43.574;1.276;2022-07-10T12:30:47;49.60;18.40
31979;DHT22;18502;43.574;1.276;2022-07-10T12:33:15;50.10;17.60
31979;DHT22;18502;43.574;1.276;2022-07-10T12:38:52;50.50;16.30
31979;DHT22;18502;43.574;1.276;2022-07-10T12:41:07;50.40;15.40
31979;DHT22;18502;43.574;1.276;2022-07-10T12:43:33;50.60;15.50
31979;DHT22;18502;43.574;1.276;2022-07-10T12:46:09;51.20;15.10
31979;DHT22;18502;43.574;1.276;2022-07-10T12:48:35;51.70;14.50
31979;DHT22;18502;43.574;1.276;2022-07-10T12:53:45;49.90;14.30
31979;DHT22;18502;43.574;1.276;2022-07-10T12:56:25;50.50;13.80
31979;DHT22;18502;43.574;1.276;2022-07-10T12:58:51;50.50;14.10
31979;DHT22;18502;43.574;1.276;2022-07-10T13:01:17;51.50;13.60
31979;DHT22;18502;43.574;1.276;2022-07-10T13:03:42;51.90;13.90
31979;DHT22;18502;43.574;1.276;2022-07-10T13:06:24;52.20;13.10
31979;DHT22;18502;43.574;1.276;2022-07-10T13:08:50;52.60;12.50
31979;DHT22;18502;43.574;1.276;2022-07-10T13:11:15;52.80;12.50
31979;DHT22;18502;43.574;1.276;2022-07-10T13:13:41;53.00;11.60
31979;DHT22;18502;43.574;1.276;2022-07-10T13:16:06;53.30;11.70
31979;DHT22;18502;43.574;1.276;2022-07-10T13:18:33;53.30;11.10
31979;DHT22;18502;43.574;1.276;2022-07-10T13:20:59;53.00;10.60
31979;DHT22;18502;43.574;1.276;2022-07-10T13:23:27;52.90;10.20
31979;DHT22;18502;43.574;1.276;2022-07-10T13:25:52;52.80;9.00
31979;DHT22;18502;43.574;1.276;2022-07-10T13:28:18;53.20;9.60
31979;DHT22;18502;43.574;1.276;2022-07-10T13:30:44;53.50;9.40
31979;DHT22;18502;43.574;1.276;2022-07-10T13:33:10;53.60;9.00
31979;DHT22;18502;43.574;1.276;2022-07-10T13:35:35;54.20;8.60
31979;DHT22;18502;43.574;1.276;2022-07-10T13:38:02;54.30;9.30
31979;DHT22;18502;43.574;1.276;2022-07-10T13:40:32;54.50;9.30
31979;DHT22;18502;43.574;1.276;2022-07-10T13:42:58;54.60;9.00
31979;DHT22;18502;43.574;1.276;2022-07-10T13:45:24;54.70;8.50
31979;DHT22;18502;43.574;1.276;2022-07-10T13:47:57;53.90;8.30
31979;DHT22;18502;43.574;1.276;2022-07-10T13:50:23;54.20;7.90
31979;DHT22;18502;43.574;1.276;2022-07-10T13:52:49;54.60;7.50
31979;DHT22;18502;43.574;1.276;2022-07-10T13:55:14;54.60;7.30
31979;DHT22;18502;43.574;1.276;2022-07-10T13:57:40;53.10;6.40
31979;DHT22;18502;43.574;1.276;2022-07-10T14:00:06;53.10;6.40
31979;DHT22;18502;43.574;1.276;2022-07-10T14:02:31;54.00;7.70
31979;DHT22;18502;43.574;1.276;2022-07-10T14:04:57;53.70;6.10
31979;DHT22;18502;43.574;1.276;2022-07-10T14:07:23;54.30;6.60
31979;DHT22;18502;43.574;1.276;2022-07-10T14:09:48;54.70;6.00
31979;DHT22;18502;43.574;1.276;2022-07-10T14:12:14;54.00;6.10
31979;DHT22;18502;43.574;1.276;2022-07-10T14:14:39;51.00;6.00
31979;DHT22;18502;43.574;1.276;2022-07-10T14:17:05;50.70;6.30
31979;DHT22;18502;43.574;1.276;2022-07-10T14:19:30;52.40;6.10
31979;DHT22;18502;43.574;1.276;2022-07-10T14:21:56;53.10;4.80
31979;DHT22;18502;43.574;1.276;2022-07-10T14:24:22;53.50;6.20
31979;DHT22;18502;43.574;1.276;2022-07-10T14:26:48;54.60;6.10
31979;DHT22;18502;43.574;1.276;2022-07-10T14:29:13;54.30;5.70
31979;DHT22;18502;43.574;1.276;2022-07-10T14:31:39;54.40;5.00
31979;DHT22;18502;43.574;1.276;2022-07-10T14:34:05;54.10;5.30
31979;DHT22;18502;43.574;1.276;2022-07-10T14:36:31;54.30;4.20
31979;DHT22;18502;43.574;1.276;2022-07-10T14:38:56;54.80;4.60
31979;DHT22;18502;43.574;1.276;2022-07-10T14:41:22;55.00;3.90
31979;DHT22;18502;43.574;1.276;2022-07-10T14:43:48;54.60;4.30
31979;DHT22;18502;43.574;1.276;2022-07-10T14:46:13;55.20;4.80
31979;DHT22;18502;43.574;1.276;2022-07-10T14:48:39;55.70;4.20
31979;DHT22;18502;43.574;1.276;2022-07-10T14:51:04;55.70;4.20
31979;DHT22;18502;43.574;1.276;2022-07-10T14:53:30;55.50;4.60
31979;DHT22;18502;43.574;1.276;2022-07-10T14:56:01;56.00;5.60
31979;DHT22;18502;43.574;1.276;2022-07-10T14:58:26;55.80;5.00
31979;DHT22;18502;43.574;1.276;2022-07-10T15:00:52;55.50;5.40
31979;DHT22;18502;43.574;1.276;2022-07-10T15:03:19;54.90;5.30
31979;DHT22;18502;43.574;1.276;2022-07-10T15:05:44;55.10;6.10
31979;DHT22;18502;43.574;1.276;2022-07-10T15:08:10;55.30;5.90
31979;DHT22;18502;43.574;1.276;2022-07-10T15:10:35;54.70;5.60
31979;DHT22;18502;43.574;1.276;2022-07-10T15:13:01;55.40;5.80
31979;DHT22;18502;43.574;1.276;2022-07-10T15:15:30;54.70;5.80
31979;DHT22;18502;43.574;1.276;2022-07-10T15:17:56;54.40;5.70
31979;DHT22;18502;43.574;1.276;2022-07-10T15:20:21;54.20;5.50
31979;DHT22;18502;43.574;1.276;2022-07-10T15:22:47;54.30;5.30
31979;DHT22;18502;43.574;1.276;2022-07-10T15:25:13;54.60;5.60
31979;DHT22;18502;43.574;1.276;2022-07-10T15:27:38;53.40;5.40
31979;DHT22;18502;43.574;1.276;2022-07-10T15:30:05;53.30;6.40
31979;DHT22;18502;43.574;1.276;2022-07-10T15:32:30;53.40;6.20
31979;DHT22;18502;43.574;1.276;2022-07-10T15:34:56;53.90;5.10
31979;DHT22;18502;43.574;1.276;2022-07-10T15:37:21;54.40;5.40
31979;DHT22;18502;43.574;1.276;2022-07-10T15:39:48;54.50;5.30
31979;DHT22;18502;43.574;1.276;2022-07-10T15:42:14;54.10;4.70
31979;DHT22;18502;43.574;1.276;2022-07-10T15:44:39;54.50;5.50
31979;DHT22;18502;43.574;1.276;2022-07-10T15:47:05;54.20;4.80
31979;DHT22;18502;43.574;1.276;2022-07-10T15:49:31;54.00;5.10
31979;DHT22;18502;43.574;1.276;2022-07-10T15:51:57;53.60;5.20
31979;DHT22;18502;43.574;1.276;2022-07-10T15:54:25;54.20;5.00